sensor_id;sensor_type;location;lat;lon;timestamp;P1;durP1;ratioP1;P2;durP2;ratioP2
47764;SDS011;33529;49.242;8.670;2024-01-15T00:01:07;44.15;;;26.65;;
47764;SDS011;33529;49.242;8.670;2024-01-15T00:03:34;45.10;;;26.48;;
47764;SDS011;33529;49.242;8.670;2024-01-15T00:06:01;41.92;;;26.20;;
47764;SDS011;33529;49.242;8.670;2024-01-15T00:08:28;42.40;;;26.80;;
47764;SDS011;33529;49.242;8.670;2024-01-15T00:10:55;42.53;;;26.27;;
47764;SDS011;33529;49.242;8.670;2024-01-15T00:13:22;43.13;;;25.63;;
47764;SDS011;33529;49.242;8.670;2024-01-15T00:15:49;41.00;;;25.85;;
47764;SDS011;33529;49.242;8.670;2024-01-15T00:18:16;39.75;;;25.50;;
47764;SDS011;33529;49.242;8.670;2024-01-15T00:20:43;42.20;;;26.25;;
47764;SDS011;33529;49.242;8.670;2024-01-15T00:23:10;41.65;;;24.63;;
47764;SDS011;33529;49.242;8.670;2024-01-15T00:25:47;44.05;;;26.02;;
47764;SDS011;33529;49.242;8.670;2024-01-15T00:28:14;39.03;;;24.55;;
47764;SDS011;33529;49.242;8.670;2024-01-15T00:30:41;41.25;;;27.00;;
47764;SDS011;33529;49.242;8.670;2024-01-15T00:33:09;41.78;;;26.08;;
47764;SDS011;33529;49.242;8.670;2024-01-15T00:35:38;44.95;;;27.08;;
47764;SDS011;33529;49.242;8.670;2024-01-15T00:38:05;45.58;;;26.80;;
47764;SDS011;33529;49.242;8.670;2024-01-15T00:40:33;38.10;;;26.20;;
47764;SDS011;33529;49.242;8.670;2024-01-15T00:43:00;42.22;;;26.33;;
47764;SDS011;33529;49.242;8.670;2024-01-15T00:45:28;46.35;;;28.27;;
47764;SDS011;33529;49.242;8.670;2024-01-15T00:47:55;46.45;;;26.67;;
47764;SDS011;33529;49.242;8.670;2024-01-15T00:50:23;45.55;;;28.08;;
47764;SDS011;33529;49.242;8.670;2024-01-15T00:52:50;43.45;;;26.75;;
47764;SDS011;33529;49.242;8.670;2024-01-15T00:55:16;44.85;;;26.92;;
47764;SDS011;33529;49.242;8.670;2024-01-15T00:57:43;45.35;;;28.38;;
47764;SDS011;33529;49.242;8.670;2024-01-15T01:00:11;41.90;;;26.83;;
47764;SDS011;33529;49.242;8.670;2024-01-15T01:02:38;44.38;;;27.58;;
47764;SDS011;33529;49.242;8.670;2024-01-15T01:05:05;44.80;;;27.23;;
47764;SDS011;33529;49.242;8.670;2024-01-15T01:07:33;45.55;;;27.20;;
47764;SDS011;33529;49.242;8.670;2024-01-15T01:10:00;46.38;;;28.58;;
47764;SDS011;33529;49.242;8.670;2024-01-15T01:12:26;48.58;;;28.60;;
47764;SDS011;33529;49.242;8.670;2024-01-15T01:14:54;41.05;;;27.02;;
47764;SDS011;33529;49.242;8.670;2024-01-15T01:17:20;45.97;;;27.05;;
47764;SDS011;33529;49.242;8.670;2024-01-15T01:19:49;48.22;;;27.50;;
47764;SDS011;33529;49.242;8.670;2024-01-15T01:22:17;44.58;;;27.45;;
47764;SDS011;33529;49.242;8.670;2024-01-15T01:24:44;46.28;;;28.30;;
47764;SDS011;33529;49.242;8.670;2024-01-15T01:27:11;44.58;;;28.00;;
47764;SDS011;33529;49.242;8.670;2024-01-15T01:29:38;45.63;;;27.02;;
47764;SDS011;33529;49.242;8.670;2024-01-15T01:32:05;49.33;;;29.63;;
47764;SDS011;33529;49.242;8.670;2024-01-15T01:34:32;45.63;;;28.27;;
47764;SDS011;33529;49.242;8.670;2024-01-15T01:37:06;45.58;;;28.67;;
47764;SDS011;33529;49.242;8.670;2024-01-15T01:39:33;49.08;;;28.08;;
47764;SDS011;33529;49.242;8.670;2024-01-15T01:42:01;46.22;;;28.55;;
47764;SDS011;33529;49.242;8.670;2024-01-15T01:44:28;48.90;;;27.92;;
47764;SDS011;33529;49.242;8.670;2024-01-15T01:46:55;45.15;;;27.52;;
47764;SDS011;33529;49.242;8.670;2024-01-15T01:49:24;42.85;;;27.15;;
47764;SDS011;33529;49.242;8.670;2024-01-15T01:51:51;45.75;;;27.50;;
47764;SDS011;33529;49.242;8.670;2024-01-15T01:54:19;45.10;;;27.67;;
47764;SDS011;33529;49.242;8.670;2024-01-15T01:56:47;42.63;;;27.63;;
47764;SDS011;33529;49.242;8.670;2024-01-15T01:59:15;47.35;;;28.85;;
47764;SDS011;33529;49.242;8.670;2024-01-15T02:01:42;43.65;;;25.85;;
47764;SDS011;33529;49.242;8.670;2024-01-15T02:04:11;42.50;;;27.05;;
47764;SDS011;33529;49.242;8.670;2024-01-15T02:06:38;40.72;;;26.05;;
47764;SDS011;33529;49.242;8.670;2024-01-15T02:09:05;39.65;;;26.30;;
47764;SDS011;33529;49.242;8.670;2024-01-15T02:11:32;42.03;;;26.20;;
47764;SDS011;33529;49.242;8.670;2024-01-15T02:13:59;43.78;;;28.00;;
47764;SDS011;33529;49.242;8.670;2024-01-15T02:16:26;39.40;;;26.90;;
47764;SDS011;33529;49.242;8.670;2024-01-15T02:18:53;40.53;;;27.77;;
47764;SDS011;33529;49.242;8.670;2024-01-15T02:21:20;45.05;;;28.33;;
47764;SDS011;33529;49.242;8.670;2024-01-15T02:23:47;42.95;;;27.65;;
47764;SDS011;33529;49.242;8.670;2024-01-15T02:26:14;42.92;;;28.27;;
47764;SDS011;33529;49.242;8.670;2024-01-15T02:28:41;45.20;;;28.25;;
47764;SDS011;33529;49.242;8.670;2024-01-15T02:31:10;42.20;;;26.98;;
47764;SDS011;33529;49.242;8.670;2024-01-15T02:33:38;39.75;;;26.70;;
47764;SDS011;33529;49.242;8.670;2024-01-15T02:36:05;41.13;;;25.42;;
47764;SDS011;33529;49.242;8.670;2024-01-15T02:38:32;41.80;;;25.42;;
47764;SDS011;33529;49.242;8.670;2024-01-15T02:40:59;43.08;;;25.95;;
47764;SDS011;33529;49.242;8.670;2024-01-15T02:43:26;41.05;;;25.58;;
47764;SDS011;33529;49.242;8.670;2024-01-15T02:45:52;35.35;;;23.92;;
47764;SDS011;33529;49.242;8.670;2024-01-15T02:48:19;39.50;;;24.75;;
47764;SDS011;33529;49.242;8.670;2024-01-15T02:50:46;37.53;;;23.65;;
47764;SDS011;33529;49.242;8.670;2024-01-15T02:53:13;35.90;;;23.63;;
47764;SDS011;33529;49.242;8.670;2024-01-15T02:55:40;36.45;;;22.60;;
47764;SDS011;33529;49.242;8.670;2024-01-15T02:58:07;36.42;;;22.98;;
47764;SDS011;33529;49.242;8.670;2024-01-15T03:00:35;38.03;;;23.00;;
47764;SDS011;33529;49.242;8.670;2024-01-15T03:03:02;33.00;;;22.08;;
47764;SDS011;33529;49.242;8.670;2024-01-15T03:05:29;36.42;;;22.73;;
47764;SDS011;33529;49.242;8.670;2024-01-15T03:07:56;35.05;;;21.95;;
47764;SDS011;33529;49.242;8.670;2024-01-15T03:10:23;28.42;;;21.33;;
47764;SDS011;33529;49.242;8.670;2024-01-15T03:12:50;32.85;;;21.17;;
47764;SDS011;33529;49.242;8.670;2024-01-15T03:15:17;30.20;;;20.50;;
47764;SDS011;33529;49.242;8.670;2024-01-15T03:17:44;34.78;;;21.52;;
47764;SDS011;33529;49.242;8.670;2024-01-15T03:20:11;30.88;;;19.45;;
47764;SDS011;33529;49.242;8.670;2024-01-15T03:22:38;31.27;;;21.20;;
47764;SDS011;33529;49.242;8.670;2024-01-15T03:25:06;29.20;;;19.38;;
47764;SDS011;33529;49.242;8.670;2024-01-15T03:27:33;32.08;;;18.92;;
47764;SDS011;33529;49.242;8.670;2024-01-15T03:30:00;28.50;;;19.20;;
47764;SDS011;33529;49.242;8.670;2024-01-15T03:32:28;28.88;;;19.38;;
47764;SDS011;33529;49.242;8.670;2024-01-15T03:34:55;29.55;;;18.35;;
47764;SDS011;33529;49.242;8.670;2024-01-15T03:37:22;25.52;;;18.23;;
47764;SDS011;33529;49.242;8.670;2024-01-15T03:39:49;30.40;;;18.75;;
47764;SDS011;33529;49.242;8.670;2024-01-15T03:42:19;31.25;;;19.52;;
47764;SDS011;33529;49.242;8.670;2024-01-15T03:44:49;27.30;;;18.88;;
47764;SDS011;33529;49.242;8.670;2024-01-15T03:47:17;30.92;;;19.27;;
47764;SDS011;33529;49.242;8.670;2024-01-15T03:49:44;28.10;;;17.90;;
47764;SDS011;33529;49.242;8.670;2024-01-15T03:52:11;29.02;;;18.80;;
47764;SDS011;33529;49.242;8.670;2024-01-15T03:54:38;29.15;;;18.17;;
47764;SDS011;33529;49.242;8.670;2024-01-15T03:57:05;30.15;;;17.92;;
47764;SDS011;33529;49.242;8.670;2024-01-15T03:59:31;31.63;;;19.48;;
47764;SDS011;33529;49.242;8.670;2024-01-15T04:01:58;31.58;;;19.98;;
47764;SDS011;33529;49.242;8.670;2024-01-15T04:04:25;29.48;;;19.60;;
47764;SDS011;33529;49.242;8.670;2024-01-15T04:06:52;30.27;;;19.92;;
47764;SDS011;33529;49.242;8.670;2024-01-15T04:09:19;31.60;;;19.50;;
47764;SDS011;33529;49.242;8.670;2024-01-15T04:11:48;28.55;;;18.67;;
47764;SDS011;33529;49.242;8.670;2024-01-15T04:14:17;29.80;;;18.90;;
47764;SDS011;33529;49.242;8.670;2024-01-15T04:16:44;32.05;;;20.45;;
47764;SDS011;33529;49.242;8.670;2024-01-15T04:19:11;30.40;;;19.73;;
47764;SDS011;33529;49.242;8.670;2024-01-15T04:21:38;29.35;;;19.85;;
47764;SDS011;33529;49.242;8.670;2024-01-15T04:24:05;31.10;;;21.58;;
47764;SDS011;33529;49.242;8.670;2024-01-15T04:26:32;32.63;;;19.67;;
47764;SDS011;33529;49.242;8.670;2024-01-15T04:28:59;29.55;;;19.17;;
47764;SDS011;33529;49.242;8.670;2024-01-15T04:31:26;28.98;;;20.13;;
47764;SDS011;33529;49.242;8.670;2024-01-15T04:33:56;30.73;;;19.45;;
47764;SDS011;33529;49.242;8.670;2024-01-15T04:36:23;31.23;;;19.52;;
47764;SDS011;33529;49.242;8.670;2024-01-15T04:38:50;33.05;;;20.55;;
47764;SDS011;33529;49.242;8.670;2024-01-15T04:41:16;31.13;;;19.90;;
47764;SDS011;33529;49.242;8.670;2024-01-15T04:43:43;28.52;;;20.13;;
47764;SDS011;33529;49.242;8.670;2024-01-15T04:46:10;29.08;;;20.40;;
47764;SDS011;33529;49.242;8.670;2024-01-15T04:48:37;30.67;;;20.40;;
47764;SDS011;33529;49.242;8.670;2024-01-15T04:51:05;32.40;;;21.40;;
47764;SDS011;33529;49.242;8.670;2024-01-15T04:53:33;28.17;;;20.13;;
47764;SDS011;33529;49.242;8.670;2024-01-15T04:56:00;27.90;;;19.50;;
47764;SDS011;33529;49.242;8.670;2024-01-15T04:58:27;32.75;;;20.70;;
47764;SDS011;33529;49.242;8.670;2024-01-15T05:00:54;30.08;;;20.30;;
47764;SDS011;33529;49.242;8.670;2024-01-15T05:03:21;29.85;;;20.40;;
47764;SDS011;33529;49.242;8.670;2024-01-15T05:05:49;32.38;;;20.38;;
47764;SDS011;33529;49.242;8.670;2024-01-15T05:08:16;30.38;;;20.45;;
47764;SDS011;33529;49.242;8.670;2024-01-15T05:10:43;29.77;;;20.40;;
47764;SDS011;33529;49.242;8.670;2024-01-15T05:13:10;29.15;;;19.92;;
47764;SDS011;33529;49.242;8.670;2024-01-15T05:15:37;29.67;;;19.90;;
47764;SDS011;33529;49.242;8.670;2024-01-15T05:18:10;33.42;;;21.60;;
47764;SDS011;33529;49.242;8.670;2024-01-15T05:20:37;32.28;;;21.58;;
47764;SDS011;33529;49.242;8.670;2024-01-15T05:23:04;32.85;;;21.92;;
47764;SDS011;33529;49.242;8.670;2024-01-15T05:25:31;28.45;;;20.48;;
47764;SDS011;33529;49.242;8.670;2024-01-15T05:27:58;32.10;;;21.08;;
47764;SDS011;33529;49.242;8.670;2024-01-15T05:30:24;33.53;;;20.80;;
47764;SDS011;33529;49.242;8.670;2024-01-15T05:32:51;31.33;;;20.98;;
47764;SDS011;33529;49.242;8.670;2024-01-15T05:35:18;30.13;;;20.67;;
47764;SDS011;33529;49.242;8.670;2024-01-15T05:37:45;32.33;;;21.42;;
47764;SDS011;33529;49.242;8.670;2024-01-15T05:40:12;32.80;;;22.60;;
47764;SDS011;33529;49.242;8.670;2024-01-15T05:42:39;27.00;;;19.48;;
47764;SDS011;33529;49.242;8.670;2024-01-15T05:45:07;31.23;;;21.63;;
47764;SDS011;33529;49.242;8.670;2024-01-15T05:47:34;30.05;;;21.77;;
47764;SDS011;33529;49.242;8.670;2024-01-15T05:50:01;34.05;;;21.45;;
47764;SDS011;33529;49.242;8.670;2024-01-15T05:52:28;32.25;;;20.58;;
47764;SDS011;33529;49.242;8.670;2024-01-15T05:54:55;32.53;;;21.13;;
47764;SDS011;33529;49.242;8.670;2024-01-15T05:57:23;31.55;;;20.85;;
47764;SDS011;33529;49.242;8.670;2024-01-15T05:59:50;30.85;;;20.60;;
47764;SDS011;33529;49.242;8.670;2024-01-15T06:02:17;35.30;;;21.75;;
47764;SDS011;33529;49.242;8.670;2024-01-15T06:04:43;34.30;;;22.40;;
47764;SDS011;33529;49.242;8.670;2024-01-15T06:07:10;34.35;;;21.58;;
47764;SDS011;33529;49.242;8.670;2024-01-15T06:09:37;33.28;;;21.10;;
47764;SDS011;33529;49.242;8.670;2024-01-15T06:12:06;35.10;;;22.63;;
47764;SDS011;33529;49.242;8.670;2024-01-15T06:14:34;32.15;;;21.42;;
47764;SDS011;33529;49.242;8.670;2024-01-15T06:17:01;35.65;;;22.15;;
47764;SDS011;33529;49.242;8.670;2024-01-15T06:19:29;34.40;;;21.02;;
47764;SDS011;33529;49.242;8.670;2024-01-15T06:21:56;35.63;;;21.67;;
47764;SDS011;33529;49.242;8.670;2024-01-15T06:24:23;31.70;;;20.70;;
47764;SDS011;33529;49.242;8.670;2024-01-15T06:26:49;33.15;;;20.77;;
47764;SDS011;33529;49.242;8.670;2024-01-15T06:29:16;27.15;;;19.08;;
47764;SDS011;33529;49.242;8.670;2024-01-15T06:31:46;30.02;;;20.35;;
47764;SDS011;33529;49.242;8.670;2024-01-15T06:34:13;30.65;;;21.15;;
47764;SDS011;33529;49.242;8.670;2024-01-15T06:36:41;29.92;;;19.45;;
47764;SDS011;33529;49.242;8.670;2024-01-15T06:39:08;32.50;;;21.48;;
47764;SDS011;33529;49.242;8.670;2024-01-15T06:41:36;29.15;;;20.13;;
47764;SDS011;33529;49.242;8.670;2024-01-15T06:44:10;33.25;;;20.85;;
47764;SDS011;33529;49.242;8.670;2024-01-15T06:46:46;33.15;;;22.02;;
47764;SDS011;33529;49.242;8.670;2024-01-15T06:49:13;32.50;;;20.77;;
47764;SDS011;33529;49.242;8.670;2024-01-15T06:51:41;30.85;;;21.77;;
47764;SDS011;33529;49.242;8.670;2024-01-15T06:54:09;32.92;;;22.42;;
47764;SDS011;33529;49.242;8.670;2024-01-15T06:56:35;29.35;;;20.30;;
47764;SDS011;33529;49.242;8.670;2024-01-15T06:59:02;27.23;;;19.65;;
47764;SDS011;33529;49.242;8.670;2024-01-15T07:01:29;29.98;;;20.55;;
47764;SDS011;33529;49.242;8.670;2024-01-15T07:03:56;28.98;;;19.80;;
47764;SDS011;33529;49.242;8.670;2024-01-15T07:06:23;29.65;;;19.55;;
47764;SDS011;33529;49.242;8.670;2024-01-15T07:08:50;30.85;;;20.15;;
47764;SDS011;33529;49.242;8.670;2024-01-15T07:11:16;31.13;;;20.40;;
47764;SDS011;33529;49.242;8.670;2024-01-15T07:13:43;30.63;;;20.75;;
47764;SDS011;33529;49.242;8.670;2024-01-15T07:16:10;33.10;;;20.30;;
47764;SDS011;33529;49.242;8.670;2024-01-15T07:18:37;26.55;;;18.83;;
47764;SDS011;33529;49.242;8.670;2024-01-15T07:21:04;31.40;;;20.55;;
47764;SDS011;33529;49.242;8.670;2024-01-15T07:23:34;29.25;;;19.05;;
47764;SDS011;33529;49.242;8.670;2024-01-15T07:26:01;28.90;;;20.05;;
47764;SDS011;33529;49.242;8.670;2024-01-15T07:28:30;27.98;;;19.55;;
47764;SDS011;33529;49.242;8.670;2024-01-15T07:30:57;29.48;;;19.58;;
47764;SDS011;33529;49.242;8.670;2024-01-15T07:33:24;31.63;;;21.42;;
47764;SDS011;33529;49.242;8.670;2024-01-15T07:35:52;28.15;;;20.42;;
47764;SDS011;33529;49.242;8.670;2024-01-15T07:38:19;28.83;;;20.67;;
47764;SDS011;33529;49.242;8.670;2024-01-15T07:40:46;30.30;;;21.05;;
47764;SDS011;33529;49.242;8.670;2024-01-15T07:43:15;29.23;;;20.02;;
47764;SDS011;33529;49.242;8.670;2024-01-15T07:45:43;25.63;;;18.83;;
47764;SDS011;33529;49.242;8.670;2024-01-15T07:48:11;29.35;;;19.30;;
47764;SDS011;33529;49.242;8.670;2024-01-15T07:50:38;29.17;;;19.85;;
47764;SDS011;33529;49.242;8.670;2024-01-15T07:53:06;27.85;;;18.92;;
47764;SDS011;33529;49.242;8.670;2024-01-15T07:55:33;27.83;;;18.80;;
47764;SDS011;33529;49.242;8.670;2024-01-15T07:57:59;31.48;;;20.42;;
47764;SDS011;33529;49.242;8.670;2024-01-15T08:00:40;26.55;;;19.02;;
47764;SDS011;33529;49.242;8.670;2024-01-15T08:03:07;25.92;;;18.92;;
47764;SDS011;33529;49.242;8.670;2024-01-15T08:05:34;29.60;;;18.63;;
47764;SDS011;33529;49.242;8.670;2024-01-15T08:08:01;28.95;;;18.90;;
47764;SDS011;33529;49.242;8.670;2024-01-15T08:10:28;29.52;;;18.98;;
47764;SDS011;33529;49.242;8.670;2024-01-15T08:12:55;29.58;;;19.15;;
47764;SDS011;33529;49.242;8.670;2024-01-15T08:15:22;24.55;;;17.70;;
47764;SDS011;33529;49.242;8.670;2024-01-15T08:17:50;29.60;;;19.55;;
47764;SDS011;33529;49.242;8.670;2024-01-15T08:20:19;26.65;;;18.80;;
47764;SDS011;33529;49.242;8.670;2024-01-15T08:22:46;28.17;;;19.00;;
47764;SDS011;33529;49.242;8.670;2024-01-15T08:25:14;26.52;;;19.65;;
47764;SDS011;33529;49.242;8.670;2024-01-15T08:27:41;29.70;;;18.90;;
47764;SDS011;33529;49.242;8.670;2024-01-15T08:30:09;28.65;;;18.13;;
47764;SDS011;33529;49.242;8.670;2024-01-15T08:32:36;28.38;;;19.67;;
47764;SDS011;33529;49.242;8.670;2024-01-15T08:35:07;24.08;;;17.80;;
47764;SDS011;33529;49.242;8.670;2024-01-15T08:37:35;25.38;;;17.92;;
47764;SDS011;33529;49.242;8.670;2024-01-15T08:40:03;24.40;;;16.83;;
47764;SDS011;33529;49.242;8.670;2024-01-15T08:42:30;27.13;;;19.23;;
47764;SDS011;33529;49.242;8.670;2024-01-15T08:44:57;23.33;;;16.42;;
47764;SDS011;33529;49.242;8.670;2024-01-15T08:47:36;22.13;;;15.75;;
47764;SDS011;33529;49.242;8.670;2024-01-15T08:50:06;24.80;;;16.92;;
47764;SDS011;33529;49.242;8.670;2024-01-15T08:52:36;24.52;;;16.67;;
47764;SDS011;33529;49.242;8.670;2024-01-15T08:55:03;23.80;;;16.45;;
47764;SDS011;33529;49.242;8.670;2024-01-15T08:57:30;24.35;;;16.95;;
47764;SDS011;33529;49.242;8.670;2024-01-15T08:59:57;22.00;;;15.95;;
47764;SDS011;33529;49.242;8.670;2024-01-15T09:02:25;23.65;;;16.45;;
47764;SDS011;33529;49.242;8.670;2024-01-15T09:04:52;23.75;;;15.88;;
47764;SDS011;33529;49.242;8.670;2024-01-15T09:07:19;24.52;;;16.40;;
47764;SDS011;33529;49.242;8.670;2024-01-15T09:09:46;22.80;;;16.23;;
47764;SDS011;33529;49.242;8.670;2024-01-15T09:12:13;23.30;;;16.17;;
47764;SDS011;33529;49.242;8.670;2024-01-15T09:14:42;24.08;;;17.02;;
47764;SDS011;33529;49.242;8.670;2024-01-15T09:17:09;25.52;;;17.02;;
47764;SDS011;33529;49.242;8.670;2024-01-15T09:19:35;28.50;;;17.98;;
47764;SDS011;33529;49.242;8.670;2024-01-15T09:22:03;26.50;;;17.08;;
47764;SDS011;33529;49.242;8.670;2024-01-15T09:24:29;23.73;;;17.25;;
47764;SDS011;33529;49.242;8.670;2024-01-15T09:26:56;23.00;;;16.17;;
47764;SDS011;33529;49.242;8.670;2024-01-15T09:29:23;23.58;;;16.15;;
47764;SDS011;33529;49.242;8.670;2024-01-15T09:31:50;22.15;;;16.05;;
47764;SDS011;33529;49.242;8.670;2024-01-15T09:34:19;24.05;;;16.58;;
47764;SDS011;33529;49.242;8.670;2024-01-15T09:36:46;23.77;;;16.67;;
47764;SDS011;33529;49.242;8.670;2024-01-15T09:39:14;27.85;;;18.25;;
47764;SDS011;33529;49.242;8.670;2024-01-15T09:41:42;29.35;;;19.48;;
47764;SDS011;33529;49.242;8.670;2024-01-15T09:44:09;29.27;;;19.75;;
47764;SDS011;33529;49.242;8.670;2024-01-15T09:46:38;29.13;;;20.15;;
47764;SDS011;33529;49.242;8.670;2024-01-15T09:49:05;27.67;;;20.30;;
47764;SDS011;33529;49.242;8.670;2024-01-15T09:51:32;32.13;;;22.10;;
47764;SDS011;33529;49.242;8.670;2024-01-15T09:53:59;31.98;;;22.17;;
47764;SDS011;33529;49.242;8.670;2024-01-15T09:56:26;32.80;;;21.63;;
47764;SDS011;33529;49.242;8.670;2024-01-15T09:58:54;36.55;;;23.35;;
47764;SDS011;33529;49.242;8.670;2024-01-15T10:01:21;31.17;;;21.50;;
47764;SDS011;33529;49.242;8.670;2024-01-15T10:03:50;32.55;;;22.08;;
47764;SDS011;33529;49.242;8.670;2024-01-15T10:06:17;34.55;;;22.17;;
47764;SDS011;33529;49.242;8.670;2024-01-15T10:08:50;35.65;;;22.45;;
47764;SDS011;33529;49.242;8.670;2024-01-15T10:11:17;30.88;;;21.17;;
47764;SDS011;33529;49.242;8.670;2024-01-15T10:13:44;35.90;;;23.50;;
47764;SDS011;33529;49.242;8.670;2024-01-15T10:16:13;35.45;;;22.63;;
47764;SDS011;33529;49.242;8.670;2024-01-15T10:18:40;30.13;;;22.40;;
47764;SDS011;33529;49.242;8.670;2024-01-15T10:21:07;33.45;;;23.33;;
47764;SDS011;33529;49.242;8.670;2024-01-15T10:23:34;31.50;;;21.70;;
47764;SDS011;33529;49.242;8.670;2024-01-15T10:26:05;33.47;;;22.30;;
47764;SDS011;33529;49.242;8.670;2024-01-15T10:28:32;26.80;;;20.05;;
47764;SDS011;33529;49.242;8.670;2024-01-15T10:31:00;31.90;;;22.42;;
47764;SDS011;33529;49.242;8.670;2024-01-15T10:33:28;32.70;;;22.02;;
47764;SDS011;33529;49.242;8.670;2024-01-15T10:35:55;32.72;;;22.55;;
47764;SDS011;33529;49.242;8.670;2024-01-15T10:38:24;29.33;;;21.50;;
47764;SDS011;33529;49.242;8.670;2024-01-15T10:41:02;35.60;;;23.15;;
47764;SDS011;33529;49.242;8.670;2024-01-15T10:43:29;38.22;;;23.45;;
47764;SDS011;33529;49.242;8.670;2024-01-15T10:45:56;33.10;;;24.00;;
47764;SDS011;33529;49.242;8.670;2024-01-15T10:48:23;31.58;;;22.13;;
47764;SDS011;33529;49.242;8.670;2024-01-15T10:50:51;31.98;;;22.40;;
47764;SDS011;33529;49.242;8.670;2024-01-15T10:53:17;33.67;;;22.75;;
47764;SDS011;33529;49.242;8.670;2024-01-15T10:55:45;33.50;;;23.23;;
47764;SDS011;33529;49.242;8.670;2024-01-15T10:58:15;33.63;;;23.25;;
47764;SDS011;33529;49.242;8.670;2024-01-15T11:00:43;34.47;;;24.52;;
47764;SDS011;33529;49.242;8.670;2024-01-15T11:03:11;35.70;;;24.48;;
47764;SDS011;33529;49.242;8.670;2024-01-15T11:05:43;36.72;;;24.83;;
47764;SDS011;33529;49.242;8.670;2024-01-15T11:08:11;37.20;;;24.77;;
47764;SDS011;33529;49.242;8.670;2024-01-15T11:10:42;32.92;;;22.67;;
47764;SDS011;33529;49.242;8.670;2024-01-15T11:13:13;35.38;;;22.73;;
47764;SDS011;33529;49.242;8.670;2024-01-15T11:15:59;35.60;;;22.70;;
47764;SDS011;33529;49.242;8.670;2024-01-15T11:18:33;33.03;;;23.25;;
47764;SDS011;33529;49.242;8.670;2024-01-15T11:23:44;29.75;;;21.25;;
47764;SDS011;33529;49.242;8.670;2024-01-15T11:29:04;32.20;;;23.92;;
47764;SDS011;33529;49.242;8.670;2024-01-15T11:34:08;35.63;;;23.45;;
47764;SDS011;33529;49.242;8.670;2024-01-15T11:39:39;30.42;;;22.85;;
47764;SDS011;33529;49.242;8.670;2024-01-15T11:42:06;32.95;;;21.30;;
47764;SDS011;33529;49.242;8.670;2024-01-15T11:44:33;30.95;;;21.70;;
47764;SDS011;33529;49.242;8.670;2024-01-15T11:47:03;34.13;;;22.55;;
47764;SDS011;33529;49.242;8.670;2024-01-15T11:52:30;32.55;;;22.77;;
47764;SDS011;33529;49.242;8.670;2024-01-15T11:57:42;34.42;;;22.83;;
47764;SDS011;33529;49.242;8.670;2024-01-15T12:00:12;35.03;;;24.05;;
47764;SDS011;33529;49.242;8.670;2024-01-15T12:02:41;33.22;;;24.75;;
47764;SDS011;33529;49.242;8.670;2024-01-15T12:05:09;30.20;;;23.30;;
47764;SDS011;33529;49.242;8.670;2024-01-15T12:07:42;36.28;;;22.73;;
47764;SDS011;33529;49.242;8.670;2024-01-15T12:15:24;32.97;;;22.77;;
47764;SDS011;33529;49.242;8.670;2024-01-15T12:17:52;32.70;;;23.25;;
47764;SDS011;33529;49.242;8.670;2024-01-15T12:20:22;29.17;;;21.60;;
47764;SDS011;33529;49.242;8.670;2024-01-15T12:22:50;28.73;;;22.60;;
47764;SDS011;33529;49.242;8.670;2024-01-15T12:25:27;28.80;;;21.13;;
47764;SDS011;33529;49.242;8.670;2024-01-15T12:27:56;28.88;;;21.20;;
47764;SDS011;33529;49.242;8.670;2024-01-15T12:30:24;29.63;;;20.77;;
47764;SDS011;33529;49.242;8.670;2024-01-15T12:32:58;30.77;;;21.60;;
47764;SDS011;33529;49.242;8.670;2024-01-15T12:35:27;30.08;;;20.33;;
47764;SDS011;33529;49.242;8.670;2024-01-15T12:37:54;30.85;;;22.00;;
47764;SDS011;33529;49.242;8.670;2024-01-15T12:40:22;29.95;;;21.10;;
47764;SDS011;33529;49.242;8.670;2024-01-15T12:42:50;29.75;;;20.52;;
47764;SDS011;33529;49.242;8.670;2024-01-15T12:45:19;27.67;;;20.08;;
47764;SDS011;33529;49.242;8.670;2024-01-15T12:47:46;29.40;;;20.33;;
47764;SDS011;33529;49.242;8.670;2024-01-15T12:50:13;27.40;;;19.65;;
47764;SDS011;33529;49.242;8.670;2024-01-15T12:52:46;27.85;;;20.77;;
47764;SDS011;33529;49.242;8.670;2024-01-15T12:55:13;28.67;;;20.73;;
47764;SDS011;33529;49.242;8.670;2024-01-15T12:57:43;27.00;;;19.05;;
47764;SDS011;33529;49.242;8.670;2024-01-15T13:00:11;23.98;;;17.67;;
47764;SDS011;33529;49.242;8.670;2024-01-15T13:02:41;23.90;;;16.90;;
47764;SDS011;33529;49.242;8.670;2024-01-15T13:05:09;24.55;;;16.67;;
47764;SDS011;33529;49.242;8.670;2024-01-15T13:07:39;20.63;;;16.17;;
47764;SDS011;33529;49.242;8.670;2024-01-15T13:10:06;18.33;;;15.25;;
47764;SDS011;33529;49.242;8.670;2024-01-15T13:12:35;20.10;;;15.88;;
47764;SDS011;33529;49.242;8.670;2024-01-15T13:15:03;21.48;;;15.57;;
47764;SDS011;33529;49.242;8.670;2024-01-15T13:17:30;19.42;;;15.52;;
47764;SDS011;33529;49.242;8.670;2024-01-15T13:19:57;21.25;;;16.33;;
47764;SDS011;33529;49.242;8.670;2024-01-15T13:22:25;20.13;;;15.70;;
47764;SDS011;33529;49.242;8.670;2024-01-15T13:24:59;21.90;;;16.17;;
47764;SDS011;33529;49.242;8.670;2024-01-15T13:27:26;23.00;;;15.88;;
47764;SDS011;33529;49.242;8.670;2024-01-15T13:29:54;17.67;;;14.35;;
47764;SDS011;33529;49.242;8.670;2024-01-15T13:32:25;21.45;;;15.27;;
47764;SDS011;33529;49.242;8.670;2024-01-15T13:34:54;20.50;;;15.48;;
47764;SDS011;33529;49.242;8.670;2024-01-15T13:37:22;19.30;;;15.45;;
47764;SDS011;33529;49.242;8.670;2024-01-15T13:39:51;17.35;;;13.68;;
47764;SDS011;33529;49.242;8.670;2024-01-15T13:42:19;18.88;;;14.65;;
47764;SDS011;33529;49.242;8.670;2024-01-15T13:44:49;17.92;;;14.23;;
47764;SDS011;33529;49.242;8.670;2024-01-15T13:47:17;20.45;;;13.88;;
47764;SDS011;33529;49.242;8.670;2024-01-15T13:49:44;18.80;;;14.32;;
47764;SDS011;33529;49.242;8.670;2024-01-15T13:52:13;18.50;;;13.10;;
47764;SDS011;33529;49.242;8.670;2024-01-15T13:54:40;16.23;;;12.52;;
47764;SDS011;33529;49.242;8.670;2024-01-15T13:57:19;16.08;;;13.52;;
47764;SDS011;33529;49.242;8.670;2024-01-15T13:59:46;14.35;;;12.70;;
47764;SDS011;33529;49.242;8.670;2024-01-15T14:02:14;17.77;;;13.27;;
47764;SDS011;33529;49.242;8.670;2024-01-15T14:04:48;18.38;;;13.25;;
47764;SDS011;33529;49.242;8.670;2024-01-15T14:07:16;15.80;;;13.90;;
47764;SDS011;33529;49.242;8.670;2024-01-15T14:09:43;18.23;;;14.43;;
47764;SDS011;33529;49.242;8.670;2024-01-15T14:12:10;16.25;;;13.18;;
47764;SDS011;33529;49.242;8.670;2024-01-15T14:14:38;18.55;;;14.07;;
47764;SDS011;33529;49.242;8.670;2024-01-15T14:17:05;17.25;;;13.73;;
47764;SDS011;33529;49.242;8.670;2024-01-15T14:19:32;18.63;;;14.40;;
47764;SDS011;33529;49.242;8.670;2024-01-15T14:21:59;16.17;;;12.90;;
47764;SDS011;33529;49.242;8.670;2024-01-15T14:24:26;15.55;;;12.82;;
47764;SDS011;33529;49.242;8.670;2024-01-15T14:26:54;16.65;;;12.25;;
47764;SDS011;33529;49.242;8.670;2024-01-15T14:29:22;14.73;;;11.68;;
47764;SDS011;33529;49.242;8.670;2024-01-15T14:31:52;14.50;;;12.07;;
47764;SDS011;33529;49.242;8.670;2024-01-15T14:34:20;14.77;;;11.82;;
47764;SDS011;33529;49.242;8.670;2024-01-15T14:36:50;15.43;;;12.05;;
47764;SDS011;33529;49.242;8.670;2024-01-15T14:39:21;15.65;;;12.32;;
47764;SDS011;33529;49.242;8.670;2024-01-15T14:41:49;14.68;;;11.82;;
47764;SDS011;33529;49.242;8.670;2024-01-15T14:44:16;13.98;;;11.65;;
47764;SDS011;33529;49.242;8.670;2024-01-15T14:46:43;18.77;;;16.77;;